Time;durP1;ratioP1;P1;durP2;ratioP2;P2;SDS_P1;SDS_P2;PMS_P1;PMS_P2;Temp;Humidity;BMP_temperature;BMP_pressure;BME280_temperature;BME280_humidity;BME280_pressure;Samples;Min_cycle;Max_cycle;Signal;HPM_P1;HPM_P2
2023/06/05 00:00:06;;;;;;;0.90;0.30;;;;;;;13.11;53.82;101003.48;110425;1268;22228;-66
2023/06/05 00:02:38;;;;;;;2.20;0.50;;;;;;;13.09;53.77;101002.48;110432;1269;22192;-65
2023/06/05 00:05:08;;;;;;;1.80;1.40;;;;;;;13.07;53.92;101002.01;110296;1269;138690;-63
2023/06/05 00:07:39;;;;;;;1.80;0.60;;;;;;;13.07;54.29;101002.17;110454;1269;22407;-64
2023/06/05 00:10:08;;;;;;;2.90;0.60;;;;;;;13.05;54.86;101000.71;110326;1270;138564;-64
2023/06/05 00:12:36;;;;;;;1.10;1.00;;;;;;;13.02;55.11;101001.99;110247;1270;138939;-63
2023/06/05 00:15:04;;;;;;;0.80;0.80;;;;;;;13.00;55.33;101004.80;110123;1270;22321;-64
2023/06/05 00:17:32;;;;;;;4.60;0.60;;;;;;;12.97;55.47;101003.55;110106;1277;138889;-64
2023/06/05 00:19:59;;;;;;;1.90;0.70;;;;;;;12.92;55.74;101001.80;110266;1270;22303;-65
2023/06/05 00:22:36;;;;;;;3.20;0.80;;;;;;;12.87;55.93;101005.85;110208;1270;137415;-65
2023/06/05 00:25:03;;;;;;;1.50;1.00;;;;;;;12.82;56.01;101005.10;110212;1272;138971;-66
2023/06/05 00:27:31;;;;;;;3.50;0.80;;;;;;;12.80;55.88;101005.27;110280;1270;22351;-64
2023/06/05 00:29:58;;;;;;;1.90;0.90;;;;;;;12.78;56.01;101004.55;110170;1259;138025;-64
2023/06/05 00:32:25;;;;;;;1.60;1.10;;;;;;;12.78;55.97;101003.52;110171;1256;138711;-64
2023/06/05 00:34:53;;;;;;;2.30;0.70;;;;;;;12.78;55.72;101001.13;110216;1274;22358;-64
2023/06/05 00:37:20;;;;;;;1.70;0.60;;;;;;;12.79;56.09;101002.17;110023;1277;138806;-66
2023/06/05 00:39:47;;;;;;;2.50;1.00;;;;;;;12.78;56.22;101003.15;110279;1277;22519;-63
2023/06/05 00:42:15;;;;;;;3.00;1.70;;;;;;;12.78;56.13;101004.29;110046;1274;138207;-64
2023/06/05 00:44:42;;;;;;;8.10;1.00;;;;;;;12.76;56.14;101005.52;110173;1277;140472;-64
2023/06/05 00:47:10;;;;;;;3.10;1.80;;;;;;;12.74;56.23;101001.70;110126;1264;23369;-64
2023/06/05 00:49:38;;;;;;;2.10;1.20;;;;;;;12.71;56.32;101001.33;110063;1269;137849;-64
2023/06/05 00:52:06;;;;;;;5.50;1.50;;;;;;;12.69;56.11;100999.85;110359;1260;138747;-66
2023/06/05 00:54:34;;;;;;;3.60;1.80;;;;;;;12.67;55.84;100997.04;110286;1256;22924;-64
2023/06/05 00:57:01;;;;;;;1.50;1.20;;;;;;;12.66;55.17;100997.23;110128;1272;138474;-64
2023/06/05 00:59:31;;;;;;;3.10;1.40;;;;;;;12.67;55.02;100996.49;110431;1270;22229;-64
2023/06/05 01:01:59;;;;;;;3.20;1.50;;;;;;;12.67;54.52;100997.52;110017;1273;139280;-63
2023/06/05 01:04:27;;;;;;;3.30;1.30;;;;;;;12.69;54.04;100998.41;110151;1275;138941;-63
2023/06/05 01:06:57;;;;;;;1.40;1.00;;;;;;;12.71;54.69;100996.02;110070;1270;22340;-64
2023/06/05 01:09:25;;;;;;;2.60;1.20;;;;;;;12.69;55.15;100994.83;110078;1271;137937;-66
2023/06/05 01:12:01;;;;;;;2.90;1.60;;;;;;;12.64;55.66;100993.45;110045;1278;22234;-64
2023/06/05 01:14:30;;;;;;;;;;;;;;;12.58;55.77;100995.57;110301;1271;22423;-65
2023/06/05 01:17:00;;;;;;;1.80;1.60;;;;;;;12.51;55.88;100995.59;110023;1273;124847;-65
2023/06/05 01:19:31;;;;;;;2.60;1.60;;;;;;;12.44;55.76;100991.35;110115;1275;23511;-65
2023/06/05 01:22:00;;;;;;;1.90;1.20;;;;;;;12.43;55.92;100994.87;110021;1278;137513;-65
2023/06/05 01:24:28;;;;;;;1.60;1.30;;;;;;;12.41;56.03;100995.63;110161;1277;138326;-65
2023/06/05 01:27:00;;;;;;;2.00;1.10;;;;;;;12.40;56.28;100995.48;110095;1270;22358;-66
2023/06/05 01:29:37;;;;;;;2.50;1.80;;;;;;;12.38;56.67;100996.40;109986;1276;138447;-65
2023/06/05 01:32:15;;;;;;;4.10;1.60;;;;;;;12.35;57.21;100997.34;110200;1278;138121;-65
2023/06/05 01:34:44;;;;;;;1.60;1.50;;;;;;;12.29;57.61;100997.27;110137;1271;22378;-65
2023/06/05 01:37:14;;;;;;;1.60;1.00;;;;;;;12.23;58.30;100996.20;110055;1270;138712;-65
2023/06/05 01:39:43;;;;;;;5.10;1.80;;;;;;;12.18;58.84;101001.02;110014;1278;22228;-64
2023/06/05 01:42:12;;;;;;;2.90;0.90;;;;;;;12.16;59.11;100993.66;110095;1270;137580;-63
2023/06/05 01:44:41;;;;;;;1.80;1.30;;;;;;;12.14;59.52;100993.58;109959;1274;138127;-64
2023/06/05 01:47:08;;;;;;;2.90;1.30;;;;;;;12.07;59.79;100993.61;110275;1271;22232;-64
2023/06/05 01:52:18;;;;;;;1.20;1.00;;;;;;;11.98;60.83;100994.04;103832;1302;545605;-66
2023/06/05 01:54:48;;;;;;;5.90;1.80;;;;;;;11.91;61.40;100997.73;105595;1292;24248;-64
2023/06/05 01:57:15;;;;;;;1.70;1.30;;;;;;;11.84;61.32;100995.92;105247;1288;138603;-64
2023/06/05 01:59:45;;;;;;;1.60;1.00;;;;;;;11.82;61.29;100994.59;105558;1292;22659;-64
2023/06/05 02:02:14;;;;;;;2.80;1.40;;;;;;;11.81;61.53;100997.34;105394;1288;138461;-63
2023/06/05 02:04:42;;;;;;;3.40;2.30;;;;;;;11.79;61.79;100997.23;105406;1285;163417;-64
2023/06/05 02:07:09;;;;;;;2.60;1.60;;;;;;;11.77;62.00;100994.25;105612;1284;25513;-64
2023/06/05 02:09:37;;;;;;;1.60;1.50;;;;;;;11.75;62.23;100992.93;105619;1284;137992;-65
2023/06/05 02:12:05;;;;;;;4.60;1.50;;;;;;;11.74;62.55;100992.67;105555;1285;139136;-66
2023/06/05 02:14:37;;;;;;;5.40;1.70;;;;;;;11.75;62.59;100992.93;105705;1273;23912;-65
2023/06/05 02:17:06;;;;;;;3.60;1.20;;;;;;;11.81;62.73;100993.86;105561;1288;139182;-66
2023/06/05 02:19:33;;;;;;;1.10;1.00;;;;;;;11.94;62.89;100989.86;109441;1282;22327;-65
2023/06/05 02:22:01;;;;;;;1.90;1.20;;;;;;;12.15;62.67;100985.45;109173;1286;137483;-65
2023/06/05 02:24:28;;;;;;;1.60;1.20;;;;;;;12.41;62.35;100988.42;109401;1284;138330;-65
2023/06/05 02:26:56;;;;;;;1.80;1.00;;;;;;;12.68;61.69;100989.23;109418;1289;22288;-64
2023/06/05 02:29:24;;;;;;;6.70;1.10;;;;;;;12.96;61.26;100992.19;109429;1285;138922;-65
2023/06/05 02:31:51;;;;;;;1.30;1.00;;;;;;;13.27;60.63;100994.30;109366;1282;22220;-65
2023/06/05 02:34:19;;;;;;;1.70;1.20;;;;;;;13.56;59.88;100996.82;109442;1290;139387;-65
2023/06/05 02:36:47;;;;;;;3.30;1.80;;;;;;;13.83;59.21;100992.89;109411;1285;139145;-65
2023/06/05 02:41:12;;;;;;;3.80;1.00;;;;;;;14.40;57.99;100988.21;102764;1310;565125;-65
2023/06/05 02:43:39;;;;;;;2.70;1.20;;;;;;;14.63;56.99;100985.27;105244;1272;45614;-68
2023/06/05 02:46:07;;;;;;;2.10;1.00;;;;;;;14.81;56.63;100984.08;105421;1277;21467;-66
2023/06/05 02:48:34;;;;;;;1.90;0.90;;;;;;;14.88;56.21;100983.20;105532;1275;21494;-66
2023/06/05 02:51:03;;;;;;;6.90;0.90;;;;;;;14.84;56.08;100981.56;105358;1278;24265;-66
2023/06/05 14:09:01;;;;;;;1.00;0.10;;;;;;;23.34;26.71;100808.36;103356;1304;545467;-64
2023/06/05 14:11:29;;;;;;;8.10;0.30;;;;;;;23.33;26.64;100809.55;105557;1288;22645;-64
2023/06/05 14:13:56;;;;;;;0.60;0.20;;;;;;;23.35;26.74;100808.97;105500;1282;138851;-65
2023/06/05 14:16:25;;;;;;;4.60;0.20;;;;;;;23.36;26.32;100808.39;105537;1271;137300;-65
2023/06/05 14:18:52;;;;;;;0.80;0.20;;;;;;;23.25;26.27;100791.39;105481;1281;25357;-66
2023/06/05 14:21:20;;;;;;;1.00;0.10;;;;;;;23.29;26.53;100801.65;105476;1286;152553;-68
2023/06/05 14:23:49;;;;;;;0.30;0.10;;;;;;;23.25;26.87;100798.73;105667;1279;22539;-66
2023/06/05 14:26:17;;;;;;;0.30;0.20;;;;;;;23.24;27.21;100800.56;105601;1285;138284;-67
2023/06/05 14:28:44;;;;;;;0.90;0.10;;;;;;;23.25;27.33;100796.71;105447;1288;139255;-66
2023/06/05 14:31:12;;;;;;;2.20;0.10;;;;;;;23.27;27.37;100798.63;109887;1274;22312;-67
2023/06/05 14:33:40;;;;;;;2.90;0.40;;;;;;;23.32;27.17;100800.03;109966;1273;139193;-67
2023/06/05 14:39:06;;;;;;;1.10;0.40;;;;;;;23.41;27.16;100790.08;103348;1304;545589;-75
2023/06/05 14:41:33;;;;;;;3.90;0.20;;;;;;;23.39;26.92;100792.84;105403;1288;138721;-79
2023/06/05 14:44:00;;;;;;;2.10;0.20;;;;;;;23.35;26.93;100792.54;105336;1292;25441;-78
